Gastonia, NC

5:54 PM EDT on May 04, 2015 (GMT -0400)
Edgewood Road Gastonia NC | | Change Station
CLOSE
Current Station
Personal Weather Station
Location: Bessemer City, NC
Elevation: 783 ft
Nearby Weather Stations

Elev 783 ft 35.26 °N, 81.26 °W | Updated 13 minutes ago

Partly Cloudy
Partly Cloudy
78.8 °F
Feels Like 79 °F
N
4.0
Wind Variable Wind from SE
Gusts 9.0 mph

Today
High -- | Low -- °F
--% Chance of Precip.
Yesterday
High -- | Low -- °F
Precip. -- in
6:30 AM 8:13 PM
Waxing Gibbous, 99% visible
Pressure 30.24 in
Visibility 10.0 miles
Clouds Few 11000 ft
Heat Index 79 °F
Dew Point 54 °F
Humidity 42%
Rainfall 0.00 in
Snow Depth Not available.
UV 1.2 out of 12
Pollen 7.10 out of 12
Air Quality Not available.
Flu Activity No Activity
METAR KAKH 042054Z AUTO VRB05KT 10SM FEW110 27/10 A3025 RMK AO2 SLP240 T02670100 57015

More Conditions Fewer Conditions

Pressure 30.24 in
Visibility 10.0 miles
Clouds Few 11000 ft
Heat Index 79 °F
Dew Point 54 °F
Humidity 42%
Rainfall 0.00 in
Snow Depth Not available.
UV 1.2 out of 12
Pollen 7.10 out of 12
Air Quality Not available.
Flu Activity No Activity
METAR KAKH 042054Z AUTO VRB05KT 10SM FEW110 27/10 A3025 RMK AO2 SLP240 T02670100 57015

More Conditions Fewer Conditions

Nepal has a long way to go to dig out and rebuild from a devastating earthquake. We have teamed up with several charities and organizations to make contributing to the relief effort as easy as possible.
How you can help: Portlight Strategies | Red Cross

10-Day Weather Forecast

Almanac

Astronomy

May. 04, 2015 Rise Set
Actual Time
Civil Twilight
Nautical Twilight
Astronomical Twilight
Moon
Length of Visible Light
Length of Day
Tomorrow will be .
, % of the Moon is Illuminated

Today's Extremes

State Highs State Lows

Community

WunderPhotos

Upload Photos

1,818,707 photos uploaded!

WunderBlogs® & News

Nearby

Air Quality

  Air Quality AQ Index Pollutant
Not available.

Snow Depth

Station Depth Elevation

Earthquake Activity

City Distance Mag. Time & Date
Minimum magnitude displayed is 2.5.

Coastal Water Temperatures

Place Temperature

Stations

Nearby Weather Stations

Station Location Temp. Windchill Dew Point Humidity Wind Precip. Elev Updated Type